Estestar — 3ECR8 — position and weather

sailwx.info

Track history (hours):
 
Tides and Currents Weather Stations Pressure Air Temp Water Temp Dewpoint Dewpoint Depression Visibility Wind Speed Wind Dir Waves Ship Positions

Estestar

Last reported at 2016-May-28 20:15 UTC. Time now 2016-May-29 00:05 UTC.
Position N 47°03' E 037°30'.

Length 133 m; draft 4.4 m.

Type: Cargo ship. MMSI: 371448000.

Date/timePositionNaut miles runAvg speedWind from/ knotsBaromVisibWave heightAir tempDewpointWater temp
2016-May-28 20:15N 47°03' E 037°30'0 0.0
2016-May-28 18:33N 47°03' E 037°30'0 0.0
2016-May-28 14:22N 47°03' E 037°30'0 0.0
2016-May-28 13:33N 47°03' E 037°30'3 2.6
2016-May-28 12:19N 47°00' E 037°29'5 5.1
2016-May-28 11:25N 46°56' E 037°30'0 0.0
2016-May-28 10:28N 46°56' E 037°30'0 0.0
2016-May-26 09:19N 46°56' E 037°30'0 0.0
2016-May-26 07:29N 46°56' E 037°30'0 0.0
2016-May-26 06:18N 46°56' E 037°30'0 0.0
2016-May-26 05:33N 46°56' E 037°30'0 0.0
2016-May-26 04:33N 46°56' E 037°30'0 0.0
2016-May-26 03:31N 46°56' E 037°30'0 0.0
2016-May-26 02:33N 46°56' E 037°30'0 0.0
2016-May-26 01:33N 46°56' E 037°30'0 0.0
2016-May-26 00:33N 46°56' E 037°30'0 0.0
2016-May-25 23:33N 46°56' E 037°30'0 0.0
2016-May-25 22:33N 46°56' E 037°30'0 0.0
2016-May-25 21:33N 46°56' E 037°30'0 0.0
2016-May-25 20:33N 46°56' E 037°30'0 0.0
2016-May-25 19:33N 46°56' E 037°30'0 0.0
2016-May-25 18:33N 46°56' E 037°30'0 0.0
2016-May-25 17:33N 46°56' E 037°30'0 0.0
2016-May-25 16:31N 46°56' E 037°30'0 0.0
2016-May-25 15:33N 46°56' E 037°30'0 0.0
2016-May-25 14:33N 46°56' E 037°30'0 0.1
2016-May-25 13:33N 46°56' E 037°30'0 0.0
2016-May-25 01:33N 46°56' E 037°30'0 0.0
2016-May-25 00:22N 46°56' E 037°30'0 0.0
2016-May-24 23:30N 46°56' E 037°30'0 0.0
2016-May-24 22:22N 46°56' E 037°30'0 0.0
2016-May-24 21:11N 46°56' E 037°30'0 0.0
2016-May-24 20:16N 46°56' E 037°30'0 0.0
2016-May-24 18:24N 46°56' E 037°30'0 0.0
2016-May-24 10:13N 46°56' E 037°30'0 0.0
2016-May-24 09:25N 46°56' E 037°30'0 0.1
2016-May-24 08:26N 46°56' E 037°30'0 0.0
2016-May-24 06:29N 46°56' E 037°30'0 0.0
2016-May-24 05:33N 46°56' E 037°30'2 1.7
2016-May-24 04:14N 46°54' E 037°28'710.4
2016-May-24 03:33N 46°48' E 037°22'7711.1
2016-May-23 20:33N 45°35' E 036°44'1111.1
2016-May-23 19:33N 45°24' E 036°41'10 9.9
2016-May-23 18:33N 45°18' E 036°30'10 9.7
2016-May-23 17:33N 45°09' E 036°30'20 1.1
2016-May-22 23:32N 44°49' E 036°37'0 0.0
2016-May-22 22:33N 44°49' E 036°37'0 0.0
2016-May-22 21:33N 44°49' E 036°37'0 0.0
2016-May-22 20:33N 44°49' E 036°37'6 5.8
2016-May-22 19:33N 44°43' E 036°36'1210.4
2016-May-22 18:27N 44°33' E 036°28'6110.3
2016-May-22 12:33N 44°05' E 035°12'1111.1
2016-May-22 11:33N 44°01' E 034°58'1111.2
2016-May-22 10:33N 43°57' E 034°43'1111.0
2016-May-22 09:33N 43°53' E 034°29'257 8.0
2016-May-21 01:21N 42°00' E 029°14'62 2.7
2016-May-20 02:25N 40°59' E 028°60'4 4.9
2016-May-20 01:32N 40°56' E 028°56'3 2.3
2016-May-20 00:25N 40°58' E 028°55'0 0.0
2016-May-19 21:25N 40°58' E 028°55'0 0.0
2016-May-19 20:25N 40°58' E 028°55'0 0.0
2016-May-19 19:31N 40°58' E 028°55'0 0.0
2016-May-19 17:13N 40°58' E 028°55'0 0.0
2016-May-19 15:31N 40°58' E 028°55'0 0.0
2016-May-19 09:19N 40°58' E 028°55'  
Track history (hours):
 
Tides and Currents Weather Stations Pressure Air Temp Water Temp Dewpoint Dewpoint Depression Visibility Wind Speed Wind Dir Waves Ship Positions

Estestar

Last reported at 2016-May-28 20:15 UTC. Time now 2016-May-29 00:05 UTC.
Position N 47°03' E 037°30'.

Length 133 m; draft 4.4 m.

Type: Cargo ship. MMSI: 371448000.

Date/timePositionNaut miles runAvg speedWind from/ knotsBaromVisibWave heightAir tempDewpointWater temp
2016-May-28 20:15N 47°03' E 037°30'0 0.0
2016-May-28 18:33N 47°03' E 037°30'0 0.0
2016-May-28 14:22N 47°03' E 037°30'0 0.0
2016-May-28 13:33N 47°03' E 037°30'3 2.6
2016-May-28 12:19N 47°00' E 037°29'5 5.1
2016-May-28 11:25N 46°56' E 037°30'0 0.0
2016-May-28 10:28N 46°56' E 037°30'0 0.0
2016-May-26 09:19N 46°56' E 037°30'0 0.0
2016-May-26 07:29N 46°56' E 037°30'0 0.0
2016-May-26 06:18N 46°56' E 037°30'0 0.0
2016-May-26 05:33N 46°56' E 037°30'0 0.0
2016-May-26 04:33N 46°56' E 037°30'0 0.0
2016-May-26 03:31N 46°56' E 037°30'0 0.0
2016-May-26 02:33N 46°56' E 037°30'0 0.0
2016-May-26 01:33N 46°56' E 037°30'0 0.0
2016-May-26 00:33N 46°56' E 037°30'0 0.0
2016-May-25 23:33N 46°56' E 037°30'0 0.0
2016-May-25 22:33N 46°56' E 037°30'0 0.0
2016-May-25 21:33N 46°56' E 037°30'0 0.0
2016-May-25 20:33N 46°56' E 037°30'0 0.0
2016-May-25 19:33N 46°56' E 037°30'0 0.0
2016-May-25 18:33N 46°56' E 037°30'0 0.0
2016-May-25 17:33N 46°56' E 037°30'0 0.0
2016-May-25 16:31N 46°56' E 037°30'0 0.0
2016-May-25 15:33N 46°56' E 037°30'0 0.0
2016-May-25 14:33N 46°56' E 037°30'0 0.1
2016-May-25 13:33N 46°56' E 037°30'0 0.0
2016-May-25 01:33N 46°56' E 037°30'0 0.0
2016-May-25 00:22N 46°56' E 037°30'0 0.0
2016-May-24 23:30N 46°56' E 037°30'0 0.0
2016-May-24 22:22N 46°56' E 037°30'0 0.0
2016-May-24 21:11N 46°56' E 037°30'0 0.0
2016-May-24 20:16N 46°56' E 037°30'0 0.0
2016-May-24 18:24N 46°56' E 037°30'0 0.0
2016-May-24 10:13N 46°56' E 037°30'0 0.0
2016-May-24 09:25N 46°56' E 037°30'0 0.1
2016-May-24 08:26N 46°56' E 037°30'0 0.0
2016-May-24 06:29N 46°56' E 037°30'0 0.0
2016-May-24 05:33N 46°56' E 037°30'2 1.7
2016-May-24 04:14N 46°54' E 037°28'710.4
2016-May-24 03:33N 46°48' E 037°22'7711.1
2016-May-23 20:33N 45°35' E 036°44'1111.1
2016-May-23 19:33N 45°24' E 036°41'10 9.9
2016-May-23 18:33N 45°18' E 036°30'10 9.7
2016-May-23 17:33N 45°09' E 036°30'20 1.1
2016-May-22 23:32N 44°49' E 036°37'0 0.0
2016-May-22 22:33N 44°49' E 036°37'0 0.0
2016-May-22 21:33N 44°49' E 036°37'0 0.0
2016-May-22 20:33N 44°49' E 036°37'6 5.8
2016-May-22 19:33N 44°43' E 036°36'1210.4
2016-May-22 18:27N 44°33' E 036°28'6110.3
2016-May-22 12:33N 44°05' E 035°12'1111.1
2016-May-22 11:33N 44°01' E 034°58'1111.2
2016-May-22 10:33N 43°57' E 034°43'1111.0
2016-May-22 09:33N 43°53' E 034°29'257 8.0
2016-May-21 01:21N 42°00' E 029°14'62 2.7
2016-May-20 02:25N 40°59' E 028°60'4 4.9
2016-May-20 01:32N 40°56' E 028°56'3 2.3
2016-May-20 00:25N 40°58' E 028°55'0 0.0
2016-May-19 21:25N 40°58' E 028°55'0 0.0
2016-May-19 20:25N 40°58' E 028°55'0 0.0
2016-May-19 19:31N 40°58' E 028°55'0 0.0
2016-May-19 17:13N 40°58' E 028°55'0 0.0
2016-May-19 15:31N 40°58' E 028°55'0 0.0
2016-May-19 09:19N 40°58' E 028°55'  

Dump ship's entire track history